Time;durP1;ratioP1;P1;durP2;ratioP2;P2;SDS_P1;SDS_P2;PMS_P1;PMS_P2;Temp;Humidity;BMP_temperature;BMP_pressure;BME280_temperature;BME280_humidity;BME280_pressure;Samples;Min_cycle;Max_cycle;Signal;HPM_P1;HPM_P2
2021/09/23 00:01:07;;;;;;;9.35;6.45;;;;;;;19.08;40.29;101935.47;5005426;28;20053;-71
2021/09/23 00:06:04;;;;;;;10.15;6.38;;;;;;;19.04;41.02;101925.72;5006436;28;20506;-73
2021/09/23 00:08:30;;;;;;;9.18;6.05;;;;;;;19.01;40.55;101910.38;5005350;28;20061;-71
2021/09/23 00:10:57;;;;;;;9.55;6.35;;;;;;;18.99;40.84;101902.22;5006534;28;20450;-72
2021/09/23 00:13:25;;;;;;;11.13;7.15;;;;;;;18.97;40.94;101912.50;5005579;28;20104;-73
2021/09/23 00:15:52;;;;;;;8.38;5.80;;;;;;;18.97;41.25;101917.13;5004949;28;20194;-73
2021/09/23 00:18:19;;;;;;;8.32;6.10;;;;;;;18.94;41.16;101909.16;5005075;28;20053;-73
2021/09/23 00:20:47;;;;;;;9.82;6.10;;;;;;;18.93;41.16;101911.03;5006633;28;20109;-73
2021/09/23 00:23:15;;;;;;;8.55;5.80;;;;;;;18.91;41.04;101907.53;5004997;28;20088;-71
2021/09/23 00:25:42;;;;;;;8.27;6.00;;;;;;;18.88;41.11;101907.75;5006039;28;20054;-72
2021/09/23 00:28:10;;;;;;;8.52;5.38;;;;;;;18.87;41.07;101913.38;5003990;28;20496;-73
2021/09/23 00:30:37;;;;;;;9.50;5.85;;;;;;;18.84;41.24;101917.31;5006262;28;20077;-73
2021/09/23 00:33:04;;;;;;;7.32;5.70;;;;;;;18.82;41.05;101913.81;5005322;28;20116;-73
2021/09/23 00:35:31;;;;;;;8.05;5.90;;;;;;;18.80;41.40;101917.66;5006206;28;20519;-73
2021/09/23 00:37:58;;;;;;;8.05;5.45;;;;;;;18.78;41.21;101909.53;5004912;28;20069;-73
2021/09/23 00:40:25;;;;;;;8.00;5.50;;;;;;;18.77;41.41;101904.19;5006219;28;20057;-73
2021/09/23 00:42:51;;;;;;;7.97;5.50;;;;;;;18.75;41.23;101904.31;5005224;28;20054;-71
2021/09/23 00:45:21;;;;;;;7.45;5.20;;;;;;;18.75;41.28;101901.56;5009832;28;20092;-71
2021/09/23 00:47:49;;;;;;;7.70;5.50;;;;;;;18.73;41.47;101905.44;5008504;28;20096;-71
2021/09/23 00:50:17;;;;;;;7.45;5.38;;;;;;;18.72;40.96;101895.44;5009869;28;20045;-73
2021/09/23 00:52:44;;;;;;;8.52;5.63;;;;;;;18.70;41.01;101895.56;5007445;28;20045;-72
2021/09/23 00:55:12;;;;;;;8.15;6.43;;;;;;;18.69;41.27;101887.47;5009215;28;20065;-71
2021/09/23 00:57:39;;;;;;;9.10;6.25;;;;;;;18.68;41.62;101892.09;5008141;28;20058;-71
2021/09/23 01:00:09;;;;;;;7.40;5.70;;;;;;;18.67;41.35;101889.47;5009202;28;20081;-73
2021/09/23 01:02:36;;;;;;;8.70;6.57;;;;;;;18.64;41.54;101885.09;5008731;28;20085;-71
2021/09/23 01:05:04;;;;;;;8.45;6.18;;;;;;;18.62;41.48;101878.84;5008958;28;20574;-73
2021/09/23 01:07:30;;;;;;;8.43;6.20;;;;;;;18.59;41.49;101870.84;4991597;28;20209;-73
2021/09/23 01:09:57;;;;;;;10.68;6.78;;;;;;;18.57;41.64;101875.59;5008633;28;20046;-70
2021/09/23 01:12:25;;;;;;;8.38;6.32;;;;;;;18.56;41.25;101869.22;5008655;28;20089;-73
2021/09/23 01:14:52;;;;;;;8.57;6.25;;;;;;;18.53;41.82;101863.94;5007291;28;20570;-73
2021/09/23 01:17:19;;;;;;;9.18;6.78;;;;;;;18.51;41.66;101863.22;5009039;28;20046;-71
2021/09/23 01:19:46;;;;;;;9.50;6.45;;;;;;;18.49;41.71;101854.22;5008346;28;20054;-73
2021/09/23 01:22:13;;;;;;;8.23;6.07;;;;;;;18.48;41.74;101846.97;5008548;28;20092;-73
2021/09/23 01:24:40;;;;;;;9.20;6.53;;;;;;;18.46;41.47;101829.72;5007599;28;20050;-73
2021/09/23 01:27:09;;;;;;;8.55;5.95;;;;;;;18.46;41.47;101842.59;4991402;28;20050;-73
2021/09/23 01:29:37;;;;;;;8.63;5.90;;;;;;;18.43;41.83;101835.50;5007389;28;20081;-72
2021/09/23 01:32:05;;;;;;;8.48;5.85;;;;;;;18.41;41.76;101829.25;5008714;28;20534;-72
2021/09/23 01:34:33;;;;;;;8.15;6.05;;;;;;;18.40;41.69;101826.63;5007450;28;20060;-73
2021/09/23 01:37:00;;;;;;;8.82;5.80;;;;;;;18.37;41.74;101825.00;5008561;28;20366;-71
2021/09/23 01:39:28;;;;;;;8.57;6.00;;;;;;;18.37;41.56;101813.13;5006417;28;20045;-71
2021/09/23 01:41:55;;;;;;;8.95;6.00;;;;;;;18.34;41.65;101803.28;5008296;28;20096;-72
2021/09/23 01:44:22;;;;;;;9.15;5.57;;;;;;;18.33;41.71;101800.66;5007570;28;20065;-71
2021/09/23 01:46:49;;;;;;;9.02;6.10;;;;;;;18.31;41.96;101799.91;4991165;28;20487;-73
2021/09/23 01:49:16;;;;;;;9.02;5.85;;;;;;;18.29;41.88;101802.78;5007279;28;20061;-72
2021/09/23 01:51:42;;;;;;;7.72;5.40;;;;;;;18.28;41.85;101812.03;5008161;28;20050;-73
2021/09/23 01:54:09;;;;;;;9.25;5.97;;;;;;;18.27;41.89;101813.03;5007278;28;20050;-73
2021/09/23 01:56:36;;;;;;;9.25;5.82;;;;;;;18.24;42.11;101811.41;5028713;22;20041;-74
2021/09/23 01:59:03;;;;;;;9.85;6.90;;;;;;;18.21;42.48;101808.91;5046428;28;20147;-74
2021/09/23 02:01:30;;;;;;;8.02;5.80;;;;;;;18.20;42.44;101809.06;5047120;28;20049;-73
2021/09/23 02:03:56;;;;;;;8.38;5.75;;;;;;;18.18;42.12;101806.44;5039367;28;20334;-74
2021/09/23 02:06:23;;;;;;;9.60;6.07;;;;;;;18.17;42.32;101795.56;5026920;28;20088;-73
2021/09/23 02:08:50;;;;;;;8.30;5.50;;;;;;;18.15;42.37;101792.06;5026087;28;20068;-74
2021/09/23 02:11:16;;;;;;;9.32;5.95;;;;;;;18.13;42.49;101783.94;5027040;28;20050;-74
2021/09/23 02:13:43;;;;;;;9.80;6.55;;;;;;;18.13;42.36;101783.06;5008914;28;20123;-73
2021/09/23 02:16:10;;;;;;;8.93;5.75;;;;;;;18.11;42.16;101787.84;5027299;28;20080;-73
2021/09/23 02:18:37;;;;;;;7.82;5.47;;;;;;;18.10;42.08;101786.09;5025795;28;20128;-73
2021/09/23 02:21:04;;;;;;;9.27;5.65;;;;;;;18.09;42.28;101779.72;5026689;28;20084;-73
2021/09/23 02:23:30;;;;;;;8.13;5.80;;;;;;;18.08;42.21;101786.22;5026297;28;20061;-73
2021/09/23 02:25:57;;;;;;;8.02;5.43;;;;;;;18.07;42.35;101784.47;5026933;28;20107;-74
2021/09/23 02:28:23;;;;;;;8.05;5.60;;;;;;;18.07;42.26;101786.34;5034460;28;20052;-73
2021/09/23 02:30:50;;;;;;;8.30;6.00;;;;;;;18.06;42.70;101784.59;5039219;28;20049;-73
2021/09/23 02:33:17;;;;;;;9.85;5.47;;;;;;;18.05;42.44;101785.59;5045914;28;20049;-74
2021/09/23 02:35:43;;;;;;;7.85;5.72;;;;;;;18.04;42.92;101783.84;5011043;28;20052;-74
2021/09/23 02:38:10;;;;;;;7.88;5.85;;;;;;;18.02;42.84;101767.50;5007793;28;20052;-73
2021/09/23 02:40:36;;;;;;;8.43;5.45;;;;;;;18.00;42.75;101755.75;5026658;28;20476;-73
2021/09/23 02:43:03;;;;;;;8.20;5.93;;;;;;;17.99;42.72;101754.00;5008253;28;20081;-74
2021/09/23 02:45:29;;;;;;;8.90;5.45;;;;;;;17.98;42.44;101755.00;5008858;28;20518;-73
2021/09/23 02:47:56;;;;;;;7.00;5.55;;;;;;;17.98;42.34;101752.25;5025344;28;20127;-74
2021/09/23 02:50:22;;;;;;;6.53;5.13;;;;;;;17.98;42.47;101752.25;5026165;28;20463;-73
2021/09/23 02:52:49;;;;;;;8.23;5.32;;;;;;;17.97;42.38;101752.38;5016773;28;20073;-74
2021/09/23 02:55:15;;;;;;;8.70;5.47;;;;;;;17.97;42.81;101746.88;5000300;28;20127;-73
2021/09/23 02:57:42;;;;;;;8.57;5.18;;;;;;;17.95;42.72;101747.03;5009482;28;20060;-74
2021/09/23 03:00:09;;;;;;;7.72;5.13;;;;;;;17.95;42.59;101747.03;5025119;28;20342;-73
2021/09/23 03:02:36;;;;;;;7.55;5.25;;;;;;;17.93;42.71;101749.03;5045469;28;20048;-73
2021/09/23 03:05:03;;;;;;;7.50;5.00;;;;;;;17.94;42.63;101749.91;5020062;28;20049;-73
2021/09/23 03:07:30;;;;;;;7.88;4.93;;;;;;;17.92;42.69;101750.03;5023925;28;20065;-73
2021/09/23 03:09:56;;;;;;;7.15;5.03;;;;;;;17.92;43.00;101747.28;5008518;28;20397;-74
2021/09/23 03:12:23;;;;;;;7.10;4.82;;;;;;;17.90;42.45;101743.78;5025355;28;20515;-73
2021/09/23 03:14:50;;;;;;;7.07;5.25;;;;;;;17.89;42.96;101739.28;5025881;28;20042;-74
2021/09/23 03:17:17;;;;;;;8.18;5.40;;;;;;;17.87;42.79;101742.16;5025674;28;20682;-74
2021/09/23 03:19:43;;;;;;;8.57;5.32;;;;;;;17.86;42.48;101745.06;5024544;28;20471;-73
2021/09/23 03:22:10;;;;;;;7.85;4.80;;;;;;;17.83;42.87;101740.69;5026059;28;20140;-73
2021/09/23 03:24:36;;;;;;;6.63;5.10;;;;;;;17.83;42.92;101734.31;5007370;28;20466;-73
2021/09/23 03:27:04;;;;;;;7.47;5.05;;;;;;;17.81;42.71;101739.06;5025520;28;20130;-74
2021/09/23 03:29:30;;;;;;;8.15;5.53;;;;;;;17.80;42.95;101729.94;5042051;28;20477;-73
2021/09/23 03:31:57;;;;;;;7.47;5.25;;;;;;;17.78;43.14;101737.47;5025609;28;20100;-73
2021/09/23 03:34:23;;;;;;;7.18;5.07;;;;;;;17.77;43.36;101734.84;5007272;28;20530;-74
2021/09/23 03:36:50;;;;;;;8.20;5.35;;;;;;;17.75;43.15;101740.44;5007507;28;20104;-73
2021/09/23 03:39:17;;;;;;;7.32;4.80;;;;;;;17.75;43.09;101739.56;5007197;28;20049;-74
2021/09/23 03:41:43;;;;;;;7.68;4.70;;;;;;;17.72;43.28;101732.44;5025501;28;20100;-73
2021/09/23 03:44:10;;;;;;;7.07;5.55;;;;;;;17.72;42.96;101742.56;5007113;28;20050;-73
2021/09/23 03:46:36;;;;;;;8.00;5.57;;;;;;;17.70;43.27;101712.50;5025105;28;20053;-74
2021/09/23 03:49:03;;;;;;;8.27;5.07;;;;;;;17.68;42.92;101709.00;5007173;28;20426;-74
2021/09/23 03:51:30;;;;;;;9.55;5.68;;;;;;;17.69;42.90;101707.13;5025611;28;20068;-74
2021/09/23 03:53:56;;;;;;;8.65;5.85;;;;;;;17.68;42.91;101710.88;5024444;28;20049;-74
2021/09/23 03:56:23;;;;;;;8.55;5.47;;;;;;;17.67;42.99;101709.13;5024532;28;20550;-73
2021/09/23 03:58:49;;;;;;;7.97;5.30;;;;;;;17.65;42.85;101720.22;5017941;28;20083;-74
2021/09/23 04:01:16;;;;;;;7.80;5.28;;;;;;;17.64;42.54;101717.59;5017077;28;20495;-73
2021/09/23 04:03:43;;;;;;;7.35;5.40;;;;;;;17.62;42.53;101705.91;5024342;28;20518;-73
2021/09/23 04:06:10;;;;;;;7.35;5.07;;;;;;;17.61;42.88;101709.59;5024655;28;20330;-73
2021/09/23 04:08:37;;;;;;;10.57;5.63;;;;;;;17.60;42.95;101718.84;5024561;28;20050;-73
2021/09/23 04:11:03;;;;;;;7.80;4.95;;;;;;;17.57;43.28;101711.72;5025411;28;20107;-73
2021/09/23 04:13:30;;;;;;;8.73;5.75;;;;;;;17.57;42.92;101705.34;5007062;28;20046;-73
2021/09/23 04:15:56;;;;;;;8.77;5.68;;;;;;;17.54;43.06;101705.63;5007105;28;20410;-73
2021/09/23 04:18:23;;;;;;;7.55;5.47;;;;;;;17.54;42.88;101700.13;5025461;28;20046;-73
2021/09/23 04:20:50;;;;;;;8.35;5.32;;;;;;;17.53;43.19;101695.63;5029111;28;20076;-73
2021/09/23 04:23:16;;;;;;;7.97;5.15;;;;;;;17.50;43.27;101697.63;5028527;28;20576;-73
2021/09/23 04:25:43;;;;;;;6.78;4.90;;;;;;;17.50;43.27;101694.00;5028439;28;20490;-74
2021/09/23 04:28:09;;;;;;;8.43;5.35;;;;;;;17.49;43.22;101697.75;5034053;28;20049;-74
2021/09/23 04:30:36;;;;;;;7.60;4.80;;;;;;;17.47;43.13;101694.25;5047550;28;20122;-73
2021/09/23 04:33:03;;;;;;;7.15;4.55;;;;;;;17.46;43.34;101690.63;5010949;28;20155;-74
2021/09/23 04:35:29;;;;;;;6.80;4.63;;;;;;;17.46;43.36;101693.38;5028688;28;20395;-74
2021/09/23 04:37:56;;;;;;;8.70;4.82;;;;;;;17.45;43.45;101693.53;5027619;28;20491;-73
2021/09/23 04:40:22;;;;;;;6.97;5.10;;;;;;;17.45;43.33;101696.28;5011320;28;20045;-73
2021/09/23 04:42:49;;;;;;;6.88;4.75;;;;;;;17.43;43.28;101693.66;5010160;28;20049;-73
2021/09/23 04:45:16;;;;;;;6.90;4.80;;;;;;;17.43;43.48;101692.78;5028322;28;20414;-73
2021/09/23 04:47:42;;;;;;;8.05;5.30;;;;;;;17.43;43.29;101692.78;5027567;28;20052;-73
2021/09/23 04:50:10;;;;;;;6.40;4.32;;;;;;;17.41;43.37;101692.91;5011095;28;20041;-74
2021/09/23 04:52:37;;;;;;;6.90;4.53;;;;;;;17.40;43.18;101698.50;5020876;28;20046;-73
2021/09/23 04:55:05;;;;;;;6.75;4.65;;;;;;;17.41;43.63;101698.38;5008689;28;20108;-74
2021/09/23 04:57:33;;;;;;;6.68;4.32;;;;;;;17.39;43.18;101697.63;5020812;28;20114;-74
2021/09/23 05:00:03;;;;;;;6.68;4.40;;;;;;;17.39;43.31;101703.13;5048049;28;20081;-74
2021/09/23 05:02:31;;;;;;;6.57;4.70;;;;;;;17.39;43.50;101714.09;5035358;28;20655;-72
2021/09/23 05:04:59;;;;;;;6.93;4.88;;;;;;;17.38;43.67;101705.97;5010955;28;20083;-73
2021/09/23 05:07:26;;;;;;;6.82;4.63;;;;;;;17.37;43.59;101726.22;5027041;28;20045;-73
2021/09/23 05:09:52;;;;;;;7.30;4.63;;;;;;;17.36;43.27;101733.59;5028226;28;20049;-73
2021/09/23 05:12:19;;;;;;;6.25;4.68;;;;;;;17.36;43.37;101732.72;5027030;28;20057;-73
2021/09/23 05:14:46;;;;;;;7.13;4.72;;;;;;;17.35;43.42;101730.97;5028380;28;20388;-73
2021/09/23 05:17:13;;;;;;;7.00;4.40;;;;;;;17.34;43.29;101740.19;5010337;28;20075;-73
2021/09/23 05:19:39;;;;;;;6.10;4.60;;;;;;;17.32;43.52;101733.94;5027311;28;20069;-73
2021/09/23 05:22:06;;;;;;;6.93;5.10;;;;;;;17.31;43.37;101738.56;5028437;28;20053;-73
2021/09/23 05:24:32;;;;;;;7.50;4.80;;;;;;;17.30;43.70;101742.28;5027337;28;20053;-74
2021/09/23 05:26:59;;;;;;;6.65;4.82;;;;;;;17.29;43.66;101740.56;5027146;28;20052;-74
2021/09/23 05:29:26;;;;;;;8.07;5.15;;;;;;;17.28;43.55;101735.22;5024685;28;20041;-73
2021/09/23 05:31:52;;;;;;;7.10;5.00;;;;;;;17.27;43.71;101731.59;5026588;28;20049;-73
2021/09/23 05:34:19;;;;;;;8.27;5.30;;;;;;;17.27;43.55;101733.47;5026950;28;20052;-73
2021/09/23 05:36:46;;;;;;;7.00;4.68;;;;;;;17.26;43.53;101720.72;5027265;28;20050;-73
2021/09/23 05:39:12;;;;;;;8.25;5.35;;;;;;;17.25;43.87;101710.75;5028687;28;20057;-73
2021/09/23 05:41:41;;;;;;;8.50;5.35;;;;;;;17.23;43.61;101705.38;5028040;28;20095;-73
2021/09/23 05:44:08;;;;;;;7.55;5.05;;;;;;;17.24;43.72;101707.13;5007030;28;20046;-73
2021/09/23 05:46:40;;;;;;;9.27;5.25;;;;;;;17.19;43.76;101714.00;5007568;28;20054;-73
2021/09/23 05:49:07;;;;;;;6.68;4.40;;;;;;;17.19;43.55;101706.63;5008595;28;20052;-73
2021/09/23 05:51:33;;;;;;;7.95;5.20;;;;;;;17.18;43.79;101698.53;5027567;28;20064;-73
2021/09/23 05:54:00;;;;;;;7.72;5.07;;;;;;;17.16;43.71;101695.91;5026834;28;20052;-73
2021/09/23 05:56:27;;;;;;;8.20;5.10;;;;;;;17.16;43.83;101692.28;5026951;28;20096;-73
2021/09/23 05:58:53;;;;;;;7.88;5.07;;;;;;;17.15;43.88;101693.28;5039059;28;20075;-73
2021/09/23 06:01:20;;;;;;;8.48;5.30;;;;;;;17.14;43.80;101689.66;5041396;28;20041;-74
2021/09/23 06:03:51;;;;;;;7.28;5.00;;;;;;;17.13;43.85;101695.28;5009482;28;20562;-73
2021/09/23 06:06:18;;;;;;;9.15;5.22;;;;;;;17.12;43.83;101686.19;5026908;28;20103;-73
2021/09/23 06:08:45;;;;;;;7.65;5.15;;;;;;;17.13;43.95;101689.81;5025944;28;20396;-73
2021/09/23 06:11:12;;;;;;;7.68;4.90;;;;;;;17.12;44.10;101680.69;5027529;28;20053;-73
2021/09/23 06:13:38;;;;;;;8.07;5.35;;;;;;;17.11;44.06;101673.47;5026394;28;20053;-73
2021/09/23 06:16:05;;;;;;;8.50;5.07;;;;;;;17.12;44.10;101672.47;5009461;28;20077;-72
2021/09/23 06:18:31;;;;;;;7.45;5.05;;;;;;;17.13;44.18;101673.34;5008299;28;20431;-73
2021/09/23 06:20:58;;;;;;;6.95;5.15;;;;;;;17.12;44.33;101675.22;5026869;28;20045;-73
2021/09/23 06:23:25;;;;;;;7.38;5.10;;;;;;;17.13;44.29;101667.84;5026305;28;20211;-73
2021/09/23 06:25:52;;;;;;;8.02;5.43;;;;;;;17.13;44.52;101672.31;5009169;28;20050;-73
2021/09/23 06:28:18;;;;;;;6.85;5.03;;;;;;;17.15;44.56;101661.22;5026461;28;20077;-73
2021/09/23 06:30:45;;;;;;;7.25;5.05;;;;;;;17.15;44.38;101652.97;5028589;28;20049;-73
2021/09/23 06:33:12;;;;;;;7.38;4.70;;;;;;;17.18;44.46;101647.25;5022494;28;20470;-73
2021/09/23 06:35:38;;;;;;;7.45;4.65;;;;;;;17.20;44.18;101661.72;5008924;28;20454;-73
2021/09/23 06:38:05;;;;;;;7.75;5.40;;;;;;;17.22;44.79;101667.94;5025886;28;20042;-65
2021/09/23 06:40:31;;;;;;;6.82;4.72;;;;;;;17.24;44.91;101671.44;5026567;28;20041;-72
2021/09/23 06:42:58;;;;;;;8.32;4.88;;;;;;;17.27;44.81;101678.56;5008112;28;20065;-72
2021/09/23 06:45:25;;;;;;;7.95;5.28;;;;;;;17.30;45.03;101670.06;5027072;28;20045;-72
2021/09/23 06:47:52;;;;;;;8.65;5.13;;;;;;;17.33;45.09;101665.19;5007032;28;20045;-73
2021/09/23 06:50:20;;;;;;;8.60;4.70;;;;;;;17.36;44.86;101666.84;5009027;28;20045;-72
2021/09/23 06:52:47;;;;;;;7.05;4.45;;;;;;;17.40;44.83;101666.44;5025367;28;20140;-72
2021/09/23 06:55:14;;;;;;;7.50;5.15;;;;;;;17.43;44.80;101665.31;5026472;28;20060;-74
2021/09/23 06:57:41;;;;;;;8.30;5.38;;;;;;;17.48;45.44;101668.53;5010824;28;20045;-72
2021/09/23 07:00:08;;;;;;;7.13;4.35;;;;;;;17.53;45.10;101665.44;5042749;28;20052;-72
2021/09/23 07:02:34;;;;;;;6.72;4.38;;;;;;;17.57;45.35;101659.53;5045143;28;20527;-72
2021/09/23 07:05:03;;;;;;;6.72;4.40;;;;;;;17.61;45.11;101661.06;5029398;28;20057;-71
2021/09/23 07:07:29;;;;;;;6.05;4.18;;;;;;;17.66;45.10;101667.06;5024842;28;20057;-71
2021/09/23 07:09:56;;;;;;;6.72;4.13;;;;;;;17.70;44.91;101668.56;5026272;28;20077;-71
2021/09/23 07:12:23;;;;;;;6.50;4.10;;;;;;;17.76;45.16;101670.78;5025153;28;20050;-71
2021/09/23 07:14:50;;;;;;;7.10;4.35;;;;;;;17.80;45.28;101669.50;5026075;28;20140;-71
2021/09/23 07:17:17;;;;;;;6.10;4.60;;;;;;;17.85;45.37;101664.50;5025418;28;20103;-71
2021/09/23 07:19:43;;;;;;;7.18;4.55;;;;;;;17.90;45.34;101658.63;5025720;28;20518;-71
2021/09/23 07:22:10;;;;;;;5.68;4.28;;;;;;;17.94;45.11;101653.75;5008624;28;20061;-71
2021/09/23 07:24:37;;;;;;;5.55;3.63;;;;;;;17.99;45.34;101657.84;5024902;28;20046;-71
2021/09/23 07:27:05;;;;;;;6.65;4.35;;;;;;;18.03;45.23;101658.47;5025610;28;20445;-71
2021/09/23 07:29:32;;;;;;;6.28;4.80;;;;;;;18.07;45.44;101637.94;5033964;28;20045;-71
2021/09/23 07:32:00;;;;;;;7.55;4.38;;;;;;;18.10;45.47;101640.44;5028055;28;20049;-72
2021/09/23 07:34:26;;;;;;;5.70;4.20;;;;;;;18.14;45.20;101642.78;5037157;28;20045;-71
2021/09/23 07:36:53;;;;;;;7.05;4.28;;;;;;;18.19;45.66;101640.53;5025559;28;20049;-72
2021/09/23 07:39:20;;;;;;;6.22;4.22;;;;;;;18.24;45.66;101645.59;5007312;28;20053;-72
2021/09/23 07:41:47;;;;;;;7.13;4.63;;;;;;;18.30;45.46;101641.44;5025849;28;20560;-72
2021/09/23 07:44:14;;;;;;;5.75;4.15;;;;;;;18.34;45.23;101653.94;5024416;28;20064;-71
2021/09/23 07:46:42;;;;;;;5.88;3.78;;;;;;;18.37;45.69;101638.03;5025397;28;20080;-71
2021/09/23 07:49:09;;;;;;;7.20;4.05;;;;;;;18.42;45.46;101643.13;5024958;28;20420;-71
2021/09/23 07:51:39;;;;;;;6.00;3.85;;;;;;;18.46;45.30;101644.59;5026265;28;20045;-71
2021/09/23 07:54:06;;;;;;;6.70;4.45;;;;;;;18.50;45.58;101648.84;5012270;28;20046;-71
2021/09/23 07:56:32;;;;;;;5.72;3.45;;;;;;;18.54;45.59;101639.31;5048449;22;20057;-71
2021/09/23 07:58:59;;;;;;;6.47;4.30;;;;;;;18.58;45.75;101641.69;5032953;28;20040;-71
2021/09/23 08:01:25;;;;;;;6.93;4.20;;;;;;;18.63;45.38;101638.53;5052055;28;20502;-71
2021/09/23 08:03:54;;;;;;;6.22;3.78;;;;;;;18.67;45.18;101651.03;5051173;28;20045;-71
2021/09/23 08:06:21;;;;;;;6.50;4.20;;;;;;;18.72;45.55;101647.84;5032432;28;20045;-71
2021/09/23 08:08:49;;;;;;;5.65;3.45;;;;;;;18.77;45.69;101640.94;5031352;28;20045;-71
2021/09/23 08:11:15;;;;;;;6.60;3.95;;;;;;;18.83;45.35;101645.91;5032209;28;20068;-72
2021/09/23 08:13:42;;;;;;;8.02;3.85;;;;;;;18.89;45.71;101638.97;5030853;28;20095;-72
2021/09/23 08:16:09;;;;;;;6.63;4.10;;;;;;;18.95;45.43;101641.16;5031729;28;20107;-72
2021/09/23 08:18:35;;;;;;;8.18;3.95;;;;;;;19.00;45.66;101625.13;5031043;28;20065;-72
2021/09/23 08:21:02;;;;;;;5.75;3.65;;;;;;;19.05;45.42;101619.19;5031765;28;20541;-72
2021/09/23 08:23:29;;;;;;;5.72;3.88;;;;;;;19.10;45.83;101609.53;5013473;28;20502;-72
2021/09/23 08:26:04;;;;;;;7.03;3.90;;;;;;;19.16;45.63;101608.97;5031400;28;20057;-72
2021/09/23 08:28:32;;;;;;;6.35;4.10;;;;;;;19.22;45.65;101594.63;5021921;28;20053;-71
2021/09/23 08:30:59;;;;;;;5.50;3.63;;;;;;;19.29;45.34;101594.94;5039178;28;20052;-72
2021/09/23 08:33:25;;;;;;;6.10;3.67;;;;;;;19.34;45.53;101585.25;5030712;28;20101;-72
2021/09/23 08:35:52;;;;;;;5.00;3.70;;;;;;;19.41;45.10;101587.44;5031467;28;20057;-72
2021/09/23 08:38:20;;;;;;;5.72;3.72;;;;;;;19.47;44.93;101585.00;5030962;28;20104;-71
2021/09/23 08:40:48;;;;;;;6.35;3.67;;;;;;;19.53;44.85;101584.44;5013868;28;20045;-72
2021/09/23 08:43:15;;;;;;;6.28;3.60;;;;;;;19.59;45.13;101586.66;5031038;28;20053;-72
2021/09/23 08:45:43;;;;;;;6.40;3.25;;;;;;;19.65;45.03;101583.31;5013891;28;20461;-71
2021/09/23 08:48:14;;;;;;;6.03;3.55;;;;;;;19.70;44.85;101572.72;5030616;28;20133;-71
2021/09/23 08:50:41;;;;;;;6.13;4.00;;;;;;;19.77;44.67;101567.50;5031619;28;20042;-72
2021/09/23 08:53:28;;;;;;;6.20;3.83;;;;;;;19.85;44.84;101558.53;5030587;28;20103;-72
2021/09/23 08:55:55;;;;;;;5.43;3.65;;;;;;;19.92;44.49;101543.16;5020324;28;20116;-72
2021/09/23 08:58:24;;;;;;;7.38;4.13;;;;;;;19.98;44.70;101546.19;5029346;28;20068;-72
2021/09/23 09:01:08;;;;;;;6.32;3.90;;;;;;;20.08;43.97;101546.16;5043891;28;20076;-71
2021/09/23 09:03:37;;;;;;;5.32;3.42;;;;;;;20.13;44.15;101550.22;5030364;28;20041;-71
2021/09/23 09:06:09;;;;;;;7.20;3.95;;;;;;;20.24;44.23;101554.72;5010724;28;20053;-72
2021/09/23 09:08:37;;;;;;;8.38;3.75;;;;;;;20.31;44.33;101552.22;5027620;28;20467;-72
2021/09/23 09:11:07;;;;;;;5.45;3.63;;;;;;;20.41;44.36;101542.06;5028571;28;20046;-72
2021/09/23 09:13:42;;;;;;;6.35;3.63;;;;;;;20.49;44.12;101537.56;5028059;28;20057;-72
2021/09/23 09:16:15;;;;;;;5.93;3.45;;;;;;;20.61;44.22;101532.69;5010523;28;20499;-72
2021/09/23 09:18:46;;;;;;;5.82;3.80;;;;;;;20.72;44.00;101529.75;5027314;28;20050;-72
2021/09/23 09:21:16;;;;;;;5.85;3.72;;;;;;;20.84;43.69;101531.28;5028277;28;20041;-72
2021/09/23 09:23:57;;;;;;;5.90;3.42;;;;;;;20.99;43.50;101526.16;5027006;28;20050;-72
2021/09/23 09:26:27;;;;;;;6.28;3.40;;;;;;;21.09;43.33;101520.53;5028143;28;20053;-71
2021/09/23 09:28:59;;;;;;;6.78;3.53;;;;;;;21.22;43.22;101521.97;5039137;28;20728;-71
2021/09/23 09:31:28;;;;;;;5.63;3.58;;;;;;;21.31;43.73;101531.22;5022029;28;20060;-71
2021/09/23 09:34:01;;;;;;;5.72;3.60;;;;;;;21.46;42.99;101529.66;5009435;28;20136;-71
2021/09/23 09:36:28;;;;;;;5.35;3.53;;;;;;;21.54;43.49;101524.22;5027674;28;20050;-72
2021/09/23 09:38:58;;;;;;;4.68;2.90;;;;;;;21.71;43.08;101516.06;5026669;28;20414;-71
2021/09/23 09:41:27;;;;;;;5.22;3.13;;;;;;;21.84;42.54;101517.41;5010140;28;20050;-72
2021/09/23 09:43:59;;;;;;;5.57;3.40;;;;;;;21.97;42.05;101504.09;5026767;28;20411;-72
2021/09/23 09:46:31;;;;;;;5.05;3.05;;;;;;;22.09;42.33;101506.56;5027202;28;20353;-71
2021/09/23 09:48:58;;;;;;;4.55;2.83;;;;;;;22.19;42.17;101501.81;5026573;28;20045;-71
2021/09/23 09:51:36;;;;;;;5.43;2.80;;;;;;;22.38;41.35;101494.16;5027602;28;20038;-71
2021/09/23 09:54:04;;;;;;;5.60;2.83;;;;;;;22.48;41.11;101498.72;5008191;28;20057;-71
2021/09/23 09:56:31;;;;;;;5.45;3.53;;;;;;;22.60;41.11;101501.03;5012464;28;20104;-71
2021/09/23 09:59:10;;;;;;;8.00;3.53;;;;;;;22.76;40.08;101486.44;5038765;28;20049;-72
2021/09/23 10:01:37;;;;;;;7.40;3.38;;;;;;;22.83;39.92;101484.72;5041782;28;20083;-71
2021/09/23 10:04:05;;;;;;;6.00;2.95;;;;;;;22.92;40.23;101483.72;5025639;28;20462;-71
2021/09/23 10:06:32;;;;;;;6.57;3.50;;;;;;;23.04;39.46;101489.84;5027158;28;20049;-71
2021/09/23 10:08:59;;;;;;;5.18;2.90;;;;;;;23.13;39.89;101486.94;5026404;28;20080;-72
2021/09/23 10:11:26;;;;;;;5.60;2.83;;;;;;;23.26;39.75;101488.34;5027151;28;20045;-71
2021/09/23 10:13:57;;;;;;;5.03;3.05;;;;;;;23.37;39.33;101493.56;5026462;28;20049;-72
2021/09/23 10:16:24;;;;;;;5.82;3.38;;;;;;;23.48;39.13;101485.81;5026136;28;20487;-71
2021/09/23 10:18:51;;;;;;;4.88;3.17;;;;;;;23.58;38.88;101482.88;5026164;28;20124;-71
2021/09/23 10:21:21;;;;;;;5.50;3.15;;;;;;;23.69;38.16;101492.78;5027053;28;20092;-72
2021/09/23 10:23:48;;;;;;;5.75;3.30;;;;;;;23.77;37.63;101482.56;5025864;28;20048;-72
2021/09/23 10:26:17;;;;;;;5.68;3.10;;;;;;;23.86;37.80;101470.41;5026671;28;20751;-72
2021/09/23 10:28:47;;;;;;;5.13;3.03;;;;;;;23.97;37.86;101454.44;5036036;28;20051;-71
2021/09/23 10:31:19;;;;;;;5.78;2.80;;;;;;;24.07;36.94;101456.00;5046424;28;20054;-71
2021/09/23 10:33:48;;;;;;;6.55;3.30;;;;;;;24.12;37.40;101455.50;5008957;28;20068;-72
2021/09/23 10:36:19;;;;;;;4.50;2.97;;;;;;;24.24;37.21;101463.28;5026454;28;20057;-71
2021/09/23 10:38:46;;;;;;;5.07;3.05;;;;;;;24.31;36.82;101446.78;5025846;28;20446;-71
2021/09/23 10:41:14;;;;;;;4.65;2.92;;;;;;;24.40;37.14;101431.84;5026375;28;20046;-72
2021/09/23 10:43:42;;;;;;;4.80;3.00;;;;;;;24.47;36.34;101432.00;5025552;28;20049;-71
2021/09/23 10:46:12;;;;;;;4.60;3.17;;;;;;;24.58;36.23;101428.84;5026056;28;20049;-71
2021/09/23 10:48:39;;;;;;;6.03;3.08;;;;;;;24.62;36.06;101427.44;5025317;28;20049;-73
2021/09/23 10:51:07;;;;;;;5.82;3.35;;;;;;;24.70;35.53;101432.09;5026407;28;20041;-73
2021/09/23 10:53:35;;;;;;;5.40;3.13;;;;;;;24.77;35.40;101433.09;5025615;28;20519;-73
2021/09/23 10:56:08;;;;;;;7.00;3.00;;;;;;;24.83;34.50;101424.03;5025828;28;20466;-74
2021/09/23 10:58:35;;;;;;;3.97;2.60;;;;;;;24.84;35.23;101417.44;5035185;28;20049;-74
2021/09/23 11:01:03;;;;;;;5.93;3.17;;;;;;;24.88;35.28;101425.22;5046107;28;20457;-73
2021/09/23 11:03:38;;;;;;;4.80;2.80;;;;;;;24.96;34.59;101418.78;5032142;28;20045;-73
2021/09/23 11:06:09;;;;;;;5.28;2.75;;;;;;;25.00;34.83;101414.59;5025630;28;20514;-73
2021/09/23 11:08:40;;;;;;;6.00;3.22;;;;;;;25.04;33.91;101415.94;5024919;28;20045;-73
2021/09/23 11:11:08;;;;;;;6.43;3.13;;;;;;;25.07;34.53;101407.25;5008791;28;20096;-73
2021/09/23 11:13:38;;;;;;;4.45;2.85;;;;;;;25.11;34.80;101427.22;5025018;28;20053;-73
2021/09/23 11:16:10;;;;;;;5.28;3.20;;;;;;;25.16;34.12;101445.06;5026019;28;20060;-73
2021/09/23 11:18:38;;;;;;;;;;;;;;;24.91;35.77;101437.91;5025478;28;20170;-74
2021/09/23 11:21:06;;;;;;;5.57;3.08;;;;;;;25.17;34.87;101444.03;5025658;28;19967;-73
2021/09/23 11:23:35;;;;;;;6.95;3.40;;;;;;;25.25;34.29;101437.53;5024725;28;20108;-73
2021/09/23 11:26:03;;;;;;;6.20;3.50;;;;;;;25.27;34.38;101433.53;5025732;28;20280;-73
2021/09/23 11:28:31;;;;;;;4.75;3.10;;;;;;;25.30;34.06;101430.38;5024347;28;20135;-73